createdAt,value
2023-04-26T00:01:55.395Z,99.90
2023-04-26T00:04:22.318Z,99.90
2023-04-26T00:06:49.380Z,99.90
2023-04-26T00:09:16.447Z,99.90
2023-04-26T00:11:43.007Z,99.90
2023-04-26T00:14:09.655Z,99.90
2023-04-26T00:16:36.284Z,99.90
2023-04-26T00:19:04.317Z,99.90
2023-04-26T00:21:31.704Z,99.90
2023-04-26T00:23:58.461Z,99.90
2023-04-26T00:26:25.051Z,99.90
2023-04-26T00:28:51.805Z,99.90
2023-04-26T00:31:18.769Z,99.90
2023-04-26T00:33:45.461Z,99.90
2023-04-26T00:36:13.494Z,99.90
2023-04-26T00:38:40.104Z,99.90
2023-04-26T00:41:06.907Z,99.90
2023-04-26T00:43:33.520Z,99.90
2023-04-26T00:46:00.197Z,99.90
2023-04-26T00:48:27.223Z,99.90
2023-04-26T00:50:53.804Z,99.90
2023-04-26T00:53:21.758Z,99.90
2023-04-26T00:55:49.161Z,99.90
2023-04-26T00:58:15.840Z,99.90
2023-04-26T01:00:42.475Z,99.90
2023-04-26T01:03:09.219Z,99.90
2023-04-26T01:05:36.670Z,99.90
2023-04-26T01:08:04.683Z,99.90
2023-04-26T01:10:35.658Z,99.90
2023-04-26T01:13:05.594Z,99.90
2023-04-26T01:15:33.451Z,99.90
2023-04-26T01:18:00.460Z,99.90
2023-04-26T01:20:27.226Z,99.90
2023-04-26T01:22:53.842Z,99.90
2023-04-26T01:25:21.423Z,99.90
2023-04-26T01:27:47.995Z,99.90
2023-04-26T01:30:14.629Z,99.90
2023-04-26T01:32:41.249Z,99.90
2023-04-26T01:35:08.132Z,99.90
2023-04-26T01:37:34.699Z,99.90
2023-04-26T01:40:01.351Z,99.90
2023-04-26T01:42:27.908Z,99.90
2023-04-26T01:44:54.458Z,99.90
2023-04-26T01:47:21.363Z,99.90
2023-04-26T01:49:48.002Z,99.90
2023-04-26T01:52:14.683Z,99.90
2023-04-26T01:54:41.257Z,99.90
2023-04-26T01:57:07.887Z,99.90
2023-04-26T01:59:34.578Z,99.90
2023-04-26T02:02:01.303Z,99.90
2023-04-26T02:04:28.235Z,99.90
2023-04-26T02:06:54.816Z,99.90
2023-04-26T02:09:21.401Z,99.90
2023-04-26T02:11:48.040Z,99.90
2023-04-26T02:14:15.671Z,99.90
2023-04-26T02:16:42.283Z,99.90
2023-04-26T02:19:10.906Z,99.90
2023-04-26T02:21:57.941Z,99.90
2023-04-26T02:24:25.503Z,99.90
2023-04-26T02:26:54.316Z,99.90
2023-04-26T02:29:29.492Z,99.90
2023-04-26T02:32:02.988Z,99.90
2023-04-26T02:34:29.600Z,99.90
2023-04-26T02:36:56.173Z,99.90
2023-04-26T02:39:22.892Z,99.90
2023-04-26T02:41:49.670Z,99.90
2023-04-26T02:44:16.720Z,99.90
2023-04-26T02:46:43.322Z,99.90
2023-04-26T02:49:09.893Z,99.90
2023-04-26T02:51:36.531Z,99.90
2023-04-26T02:54:04.550Z,99.90
2023-04-26T02:56:32.313Z,99.90
2023-04-26T02:58:58.913Z,99.90
2023-04-26T03:01:25.541Z,99.90
2023-04-26T03:03:52.361Z,99.90
2023-04-26T03:06:19.042Z,99.90
2023-04-26T03:08:45.612Z,99.90
2023-04-26T03:11:12.200Z,99.90
2023-04-26T03:13:38.754Z,99.90
2023-04-26T03:16:06.211Z,99.90
2023-04-26T03:18:32.806Z,99.90
2023-04-26T03:20:59.403Z,99.90
2023-04-26T03:23:26.566Z,99.90
2023-04-26T03:25:53.177Z,99.90
2023-04-26T03:28:19.799Z,99.90
2023-04-26T03:30:46.419Z,99.90
2023-04-26T03:33:13.534Z,99.90
2023-04-26T03:35:40.331Z,99.90
2023-04-26T03:38:06.891Z,99.90
2023-04-26T03:40:33.541Z,99.90
2023-04-26T03:43:00.225Z,99.90
2023-04-26T03:45:27.045Z,99.90
2023-04-26T03:47:53.899Z,99.90
2023-04-26T03:50:20.581Z,99.90
2023-04-26T03:52:47.159Z,99.90
2023-04-26T03:55:13.938Z,99.90
2023-04-26T03:57:40.501Z,99.90
2023-04-26T04:00:12.022Z,99.90
2023-04-26T04:02:38.832Z,99.90
2023-04-26T04:05:06.008Z,99.90
2023-04-26T04:07:35.322Z,99.90
2023-04-26T04:10:01.952Z,99.90
2023-04-26T04:12:28.540Z,99.90
2023-04-26T04:14:55.151Z,99.90
2023-04-26T04:17:21.762Z,99.90
2023-04-26T04:19:48.373Z,99.90
2023-04-26T04:22:14.961Z,99.90
2023-04-26T04:24:42.623Z,99.90
2023-04-26T04:27:09.241Z,99.90
2023-04-26T04:29:36.148Z,99.90
2023-04-26T04:32:02.976Z,99.90
2023-04-26T04:34:30.125Z,99.90
2023-04-26T04:36:56.759Z,99.90
2023-04-26T04:39:23.341Z,99.90
2023-04-26T04:41:49.975Z,99.90
2023-04-26T04:44:17.613Z,99.90
2023-04-26T04:46:44.700Z,99.90
2023-04-26T04:49:12.542Z,99.90
2023-04-26T04:51:39.534Z,99.90
2023-04-26T04:54:17.721Z,99.90
2023-04-26T04:56:45.054Z,99.90
2023-04-26T04:59:12.144Z,99.90
2023-04-26T05:01:38.868Z,99.90
2023-04-26T05:04:07.360Z,99.90
2023-04-26T05:06:34.536Z,99.90
2023-04-26T05:09:01.899Z,99.90
2023-04-26T05:11:28.628Z,99.90
2023-04-26T05:13:55.615Z,99.90
2023-04-26T05:16:22.560Z,99.90
2023-04-26T05:18:49.292Z,99.90
2023-04-26T05:21:16.348Z,99.90
2023-04-26T05:23:43.156Z,99.90
2023-04-26T05:26:15.151Z,99.90
2023-04-26T05:28:42.029Z,99.90
2023-04-26T05:31:11.406Z,99.90
2023-04-26T05:33:38.427Z,99.90
2023-04-26T05:36:05.675Z,99.90
2023-04-26T05:38:32.276Z,99.90
2023-04-26T05:40:58.896Z,99.90
2023-04-26T05:43:25.657Z,99.90
2023-04-26T05:45:56.835Z,99.90
2023-04-26T05:48:24.997Z,99.90
2023-04-26T05:50:52.554Z,99.90
2023-04-26T05:53:19.797Z,99.90
2023-04-26T05:55:46.711Z,99.90
2023-04-26T05:58:13.411Z,99.90
2023-04-26T06:00:40.891Z,99.90
2023-04-26T06:03:07.621Z,99.90
2023-04-26T06:05:35.899Z,99.90
2023-04-26T06:08:02.497Z,99.90
2023-04-26T06:10:29.330Z,99.90
2023-04-26T06:12:56.224Z,99.90
2023-04-26T06:15:22.998Z,99.90
2023-04-26T06:17:49.620Z,99.90
2023-04-26T06:20:16.258Z,99.90
2023-04-26T06:22:43.138Z,99.90
2023-04-26T06:25:09.924Z,99.90
2023-04-26T06:27:36.563Z,99.90
2023-04-26T06:30:03.634Z,99.90
2023-04-26T06:32:30.621Z,99.90
2023-04-26T06:34:57.226Z,99.90
2023-04-26T06:37:23.857Z,99.90
2023-04-26T06:39:50.422Z,99.90
2023-04-26T06:42:16.979Z,99.90
2023-04-26T06:44:43.563Z,99.90
2023-04-26T06:47:11.184Z,99.90
2023-04-26T06:49:38.273Z,99.90
2023-04-26T06:52:07.680Z,98.30
2023-04-26T06:54:37.763Z,94.60
2023-04-26T06:57:06.775Z,92.40
2023-04-26T06:59:33.615Z,91.90
2023-04-26T07:02:00.615Z,93.80
2023-04-26T07:04:27.682Z,94.80
2023-04-26T07:06:54.500Z,96.30
2023-04-26T07:09:21.071Z,95.80
2023-04-26T07:11:47.645Z,96.20
2023-04-26T07:14:14.253Z,94.40
2023-04-26T07:16:41.168Z,94.80
2023-04-26T07:19:08.636Z,90.90
2023-04-26T07:21:35.949Z,89.50
2023-04-26T07:24:02.598Z,84.30
2023-04-26T07:26:29.746Z,84.10
2023-04-26T07:28:56.469Z,82.80
2023-04-26T07:31:23.036Z,79.40
2023-04-26T07:33:49.827Z,82.50
2023-04-26T07:36:16.531Z,83.20
2023-04-26T07:38:43.126Z,77.90
2023-04-26T07:41:09.841Z,76.60
2023-04-26T07:43:36.395Z,79.90
2023-04-26T07:46:03.073Z,76.20
2023-04-26T07:48:29.728Z,74.30
2023-04-26T07:50:56.625Z,73.20
2023-04-26T07:53:23.620Z,72.80
2023-04-26T07:55:51.336Z,70.40
2023-04-26T07:58:19.328Z,65.40
2023-04-26T08:00:45.999Z,65.50
2023-04-26T08:03:16.627Z,64.80
2023-04-26T08:05:44.101Z,63.20
2023-04-26T08:08:10.953Z,66.70
2023-04-26T08:10:41.511Z,69.80
2023-04-26T08:13:08.202Z,69.10
2023-04-26T08:15:34.842Z,71.70
2023-04-26T08:18:01.433Z,73.80
2023-04-26T08:20:28.054Z,77.60
2023-04-26T08:22:58.165Z,80.20
2023-04-26T08:25:25.051Z,82.10
2023-04-26T08:27:52.423Z,83.30
2023-04-26T08:30:19.711Z,84.80
2023-04-26T08:32:46.639Z,84.90
2023-04-26T08:35:13.341Z,86.90
2023-04-26T08:37:39.988Z,87.60
2023-04-26T08:40:10.582Z,87.00
2023-04-26T08:42:46.845Z,90.10
2023-04-26T08:45:15.869Z,91.70
2023-04-26T08:47:50.438Z,92.50
2023-04-26T08:50:21.056Z,93.60
2023-04-26T08:52:51.532Z,98.50
2023-04-26T08:55:22.360Z,99.90
2023-04-26T08:57:50.684Z,99.90
2023-04-26T09:00:18.278Z,99.90
2023-04-26T09:02:50.986Z,99.90
2023-04-26T09:05:18.294Z,99.90
2023-04-26T09:07:46.877Z,99.90
2023-04-26T09:10:17.712Z,99.90
2023-04-26T09:12:44.408Z,99.90
2023-04-26T09:15:11.494Z,99.90
2023-04-26T09:17:39.219Z,99.90
2023-04-26T09:20:19.672Z,99.90
2023-04-26T09:22:47.013Z,99.90
2023-04-26T09:25:15.801Z,99.90
2023-04-26T09:27:43.954Z,99.90
2023-04-26T09:30:18.402Z,99.90
2023-04-26T09:33:06.619Z,99.90
2023-04-26T09:35:38.657Z,99.90
2023-04-26T09:38:13.536Z,99.90
2023-04-26T09:40:46.314Z,99.90
2023-04-26T09:43:20.725Z,92.20
2023-04-26T09:45:51.695Z,89.20
2023-04-26T09:48:26.870Z,86.30
2023-04-26T09:50:55.327Z,83.80
2023-04-26T09:53:49.917Z,87.00
2023-04-26T09:56:22.009Z,90.80
2023-04-26T09:58:58.740Z,92.30
2023-04-26T10:01:28.159Z,92.20
2023-04-26T10:03:57.379Z,93.60
2023-04-26T10:06:25.283Z,93.80
2023-04-26T10:11:18.989Z,96.50
2023-04-26T10:13:45.650Z,95.10
2023-04-26T10:16:12.267Z,94.20
2023-04-26T10:18:39.020Z,94.40
2023-04-26T10:21:18.387Z,91.40
2023-04-26T10:23:45.627Z,90.60
2023-04-26T10:26:49.928Z,88.50
2023-04-26T10:29:16.704Z,87.20
2023-04-26T10:32:02.368Z,89.20
2023-04-26T10:34:33.275Z,91.20
2023-04-26T10:37:11.426Z,90.30
2023-04-26T10:39:39.798Z,91.00
2023-04-26T10:42:30.140Z,86.00
2023-04-26T10:45:00.443Z,88.00
2023-04-26T10:47:34.953Z,86.80
2023-04-26T10:50:11.856Z,82.90
2023-04-26T10:53:05.664Z,82.70
2023-04-26T10:55:42.607Z,82.20
2023-04-26T10:58:32.991Z,83.00
2023-04-26T11:01:07.182Z,81.00
2023-04-26T11:03:34.478Z,80.40
2023-04-26T11:06:05.719Z,82.00
2023-04-26T11:08:32.363Z,85.70
2023-04-26T11:11:10.194Z,90.30
2023-04-26T11:13:41.835Z,93.30
2023-04-26T11:16:13.688Z,94.80
2023-04-26T11:18:42.450Z,97.80
2023-04-26T11:21:09.704Z,99.90
2023-04-26T11:23:36.833Z,99.90
2023-04-26T11:26:08.439Z,99.90
2023-04-26T11:28:37.256Z,99.90
2023-04-26T11:31:05.160Z,99.90
2023-04-26T11:33:34.154Z,99.90
2023-04-26T11:36:00.901Z,99.90
2023-04-26T11:38:28.547Z,99.90
2023-04-26T11:41:03.238Z,99.90
2023-04-26T11:43:36.640Z,99.90
2023-04-26T11:46:04.848Z,99.90
2023-04-26T11:48:33.520Z,99.90
2023-04-26T11:51:02.571Z,99.90
2023-04-26T11:53:40.258Z,97.10
2023-04-26T11:56:17.194Z,97.50
2023-04-26T11:58:48.372Z,99.10
2023-04-26T12:01:29.338Z,98.50
2023-04-26T12:03:58.308Z,99.20
2023-04-26T12:06:33.073Z,99.90
2023-04-26T12:09:02.929Z,99.90
2023-04-26T12:11:29.770Z,99.90
2023-04-26T12:13:58.605Z,99.80
2023-04-26T12:16:27.032Z,99.00
2023-04-26T12:18:55.218Z,99.90
2023-04-26T12:21:22.227Z,97.10
2023-04-26T12:23:49.286Z,95.00
2023-04-26T12:26:16.496Z,96.10
2023-04-26T12:28:43.432Z,94.90
2023-04-26T12:31:10.121Z,92.90
2023-04-26T12:33:36.888Z,92.80
2023-04-26T12:36:11.801Z,93.80
2023-04-26T12:38:39.409Z,93.60
2023-04-26T12:41:07.039Z,93.60
2023-04-26T12:43:33.699Z,92.40
2023-04-26T12:46:01.299Z,92.10
2023-04-26T12:48:28.816Z,95.50
2023-04-26T12:50:55.869Z,95.20
2023-04-26T12:53:22.535Z,96.90
2023-04-26T12:55:49.329Z,99.40
2023-04-26T12:58:16.235Z,99.50
2023-04-26T13:00:44.626Z,99.90
2023-04-26T13:03:14.350Z,99.90
2023-04-26T13:05:41.360Z,99.90
2023-04-26T13:08:07.964Z,99.90
2023-04-26T13:10:34.619Z,99.90
2023-04-26T13:13:01.449Z,99.90
2023-04-26T13:15:28.244Z,99.90
2023-04-26T13:17:54.936Z,99.90
2023-04-26T13:20:23.147Z,99.90
2023-04-26T13:22:51.294Z,99.90
2023-04-26T13:25:19.135Z,99.90
2023-04-26T13:27:46.280Z,99.00
2023-04-26T13:30:13.707Z,98.30
2023-04-26T13:32:40.595Z,96.10
2023-04-26T13:35:08.082Z,95.50
2023-04-26T13:37:34.678Z,94.50
2023-04-26T13:40:01.366Z,94.70
2023-04-26T13:42:28.068Z,95.70
2023-04-26T13:44:54.705Z,96.70
2023-04-26T13:47:21.343Z,96.80
2023-04-26T13:49:47.983Z,98.80
2023-04-26T13:52:14.542Z,98.40
2023-04-26T13:54:41.366Z,99.50
2023-04-26T13:57:07.997Z,99.90
2023-04-26T13:59:34.598Z,99.90
2023-04-26T14:02:01.233Z,99.90
2023-04-26T14:04:28.190Z,99.90
2023-04-26T14:06:54.964Z,99.90
2023-04-26T14:09:21.598Z,99.90
2023-04-26T14:11:54.194Z,99.90
2023-04-26T14:14:24.136Z,99.90
2023-04-26T14:16:50.901Z,99.90
2023-04-26T14:19:18.018Z,99.90
2023-04-26T14:21:44.699Z,99.90
2023-04-26T14:24:11.526Z,99.90
2023-04-26T14:26:38.166Z,99.90
2023-04-26T14:29:05.142Z,99.90
2023-04-26T14:31:32.502Z,99.90
2023-04-26T14:33:59.216Z,99.90
2023-04-26T14:36:25.923Z,99.90
2023-04-26T14:38:52.510Z,99.90
2023-04-26T14:41:19.663Z,99.90
2023-04-26T14:43:47.071Z,99.90
2023-04-26T14:46:13.886Z,99.90
2023-04-26T14:48:40.595Z,99.90
2023-04-26T14:51:07.633Z,99.90
2023-04-26T14:53:34.241Z,99.90
2023-04-26T14:56:01.253Z,99.90
2023-04-26T14:58:28.037Z,99.90
2023-04-26T15:00:54.676Z,99.90
2023-04-26T15:03:21.951Z,99.90
2023-04-26T15:05:48.652Z,99.90
2023-04-26T15:08:15.449Z,99.90
2023-04-26T15:10:42.197Z,99.90
2023-04-26T15:13:08.748Z,99.90
2023-04-26T15:15:35.318Z,99.90
2023-04-26T15:18:02.042Z,99.90
2023-04-26T15:20:28.668Z,99.90
2023-04-26T15:22:55.294Z,99.90
2023-04-26T15:25:21.867Z,99.90
2023-04-26T15:27:50.193Z,99.90
2023-04-26T15:30:17.086Z,99.90
2023-04-26T15:32:47.733Z,99.90
2023-04-26T15:35:15.460Z,99.90
2023-04-26T15:37:42.112Z,99.90
2023-04-26T15:40:10.384Z,99.90
2023-04-26T15:42:37.128Z,99.90
2023-04-26T15:45:03.924Z,99.90
2023-04-26T15:47:30.772Z,99.90
2023-04-26T15:50:03.503Z,99.90
2023-04-26T15:52:30.711Z,99.90
2023-04-26T15:54:57.265Z,99.90
2023-04-26T15:57:23.919Z,99.90
2023-04-26T15:59:51.079Z,99.90
2023-04-26T16:02:17.985Z,99.90
2023-04-26T16:04:44.768Z,99.90
2023-04-26T16:07:11.943Z,99.90
2023-04-26T16:09:38.920Z,99.90
2023-04-26T16:12:05.905Z,99.90
2023-04-26T16:14:33.014Z,99.90
2023-04-26T16:17:01.395Z,99.90
2023-04-26T16:19:28.117Z,99.90
2023-04-26T16:21:54.738Z,99.90
2023-04-26T16:24:21.307Z,99.90
2023-04-26T16:26:47.877Z,99.90
2023-04-26T16:29:14.769Z,99.90
2023-04-26T16:31:41.518Z,99.90
2023-04-26T16:34:08.104Z,99.90
2023-04-26T16:36:35.423Z,99.90
2023-04-26T16:39:02.051Z,99.90
2023-04-26T16:41:28.816Z,99.90
2023-04-26T16:43:55.926Z,99.90
2023-04-26T16:46:23.317Z,99.90
2023-04-26T16:48:50.127Z,99.90
2023-04-26T16:51:16.709Z,99.90
2023-04-26T16:53:43.285Z,99.90
2023-04-26T16:56:10.399Z,99.90
2023-04-26T16:58:37.351Z,99.90
2023-04-26T17:01:04.658Z,99.90
2023-04-26T17:03:31.687Z,99.90
2023-04-26T17:05:58.778Z,99.90
2023-04-26T17:08:27.038Z,99.90
2023-04-26T17:10:53.605Z,99.90
2023-04-26T17:13:20.448Z,99.90
2023-04-26T17:15:47.343Z,99.90
2023-04-26T17:18:14.067Z,99.90
2023-04-26T17:20:41.795Z,99.90
2023-04-26T17:23:08.894Z,99.90
2023-04-26T17:25:35.736Z,99.90
2023-04-26T17:28:02.308Z,99.90
2023-04-26T17:30:29.114Z,99.90
2023-04-26T17:32:55.857Z,99.90
2023-04-26T17:35:22.525Z,99.90
2023-04-26T17:37:50.541Z,99.90
2023-04-26T17:40:18.792Z,99.90
2023-04-26T17:42:46.098Z,99.90
2023-04-26T17:45:14.171Z,99.90
2023-04-26T17:47:41.725Z,99.90
2023-04-26T17:50:09.408Z,99.90
2023-04-26T17:52:36.967Z,99.90
2023-04-26T17:55:05.703Z,99.90
2023-04-26T17:57:32.247Z,99.90
2023-04-26T17:59:58.896Z,99.90
2023-04-26T18:02:25.730Z,99.90
2023-04-26T18:04:54.448Z,99.90
2023-04-26T18:07:21.114Z,99.90
2023-04-26T18:09:47.736Z,99.90
2023-04-26T18:12:14.330Z,99.90
2023-04-26T18:14:44.645Z,99.90
2023-04-26T18:17:12.985Z,99.90
2023-04-26T18:19:40.008Z,99.90
2023-04-26T18:22:07.481Z,99.90
2023-04-26T18:24:35.057Z,99.90
2023-04-26T18:27:02.709Z,99.90
2023-04-26T18:29:30.302Z,99.90
2023-04-26T18:31:57.036Z,99.90
2023-04-26T18:34:23.691Z,99.90
2023-04-26T18:36:50.239Z,99.90
2023-04-26T18:39:16.863Z,99.90
2023-04-26T18:41:43.508Z,99.90
2023-04-26T18:44:13.264Z,99.90
2023-04-26T18:46:41.208Z,99.90
2023-04-26T18:49:07.883Z,99.90
2023-04-26T18:51:34.619Z,99.90
2023-04-26T18:54:01.594Z,99.90
2023-04-26T18:56:29.248Z,99.90
2023-04-26T18:58:56.314Z,99.90
2023-04-26T19:01:23.263Z,99.90
2023-04-26T19:03:50.013Z,99.90
2023-04-26T19:06:16.843Z,99.90
2023-04-26T19:08:44.678Z,99.90
2023-04-26T19:11:12.324Z,99.90
2023-04-26T19:13:40.074Z,99.90
2023-04-26T19:16:07.999Z,99.90
2023-04-26T19:18:36.853Z,99.90
2023-04-26T19:21:04.745Z,99.90
2023-04-26T19:23:31.573Z,99.90
2023-04-26T19:26:05.381Z,99.90
2023-04-26T19:28:32.398Z,99.90
2023-04-26T19:30:59.455Z,99.90
2023-04-26T19:33:27.021Z,99.90
2023-04-26T19:35:53.976Z,99.90
2023-04-26T19:38:20.722Z,99.90
2023-04-26T19:40:47.306Z,99.90
2023-04-26T19:43:13.988Z,99.90
2023-04-26T19:45:40.946Z,99.90
2023-04-26T19:48:10.994Z,99.90
2023-04-26T19:50:42.372Z,99.90
2023-04-26T19:53:10.623Z,99.90
2023-04-26T19:55:42.056Z,99.90
2023-04-26T19:58:10.375Z,99.90
2023-04-26T20:00:37.948Z,99.90
2023-04-26T20:03:05.291Z,99.90
2023-04-26T20:05:32.188Z,99.90
2023-04-26T20:07:58.804Z,99.90
2023-04-26T20:10:25.561Z,99.90
2023-04-26T20:12:53.145Z,99.90
2023-04-26T20:15:19.974Z,99.90
2023-04-26T20:17:46.872Z,99.90
2023-04-26T20:20:13.608Z,99.90
2023-04-26T20:22:40.660Z,99.90
2023-04-26T20:25:07.716Z,99.90
2023-04-26T20:27:34.382Z,99.90
2023-04-26T20:30:01.364Z,99.90
2023-04-26T20:32:28.235Z,99.90
2023-04-26T20:34:55.013Z,99.90
2023-04-26T20:37:21.902Z,99.90
2023-04-26T20:39:48.990Z,99.90
2023-04-26T20:42:15.959Z,99.90
2023-04-26T20:44:42.826Z,99.90
2023-04-26T20:47:09.490Z,99.90
2023-04-26T20:49:36.272Z,99.90
2023-04-26T20:52:03.038Z,99.90
2023-04-26T20:54:29.726Z,99.90
2023-04-26T20:56:56.361Z,99.90
2023-04-26T20:59:25.078Z,99.90
2023-04-26T21:01:53.518Z,99.90
2023-04-26T21:04:20.678Z,99.90
2023-04-26T21:06:47.658Z,99.90
2023-04-26T21:09:14.407Z,99.90
2023-04-26T21:11:41.394Z,99.90
2023-04-26T21:14:09.055Z,99.90
2023-04-26T21:16:36.029Z,99.90
2023-04-26T21:19:03.395Z,99.90
2023-04-26T21:21:30.187Z,99.90
2023-04-26T21:23:56.915Z,99.90
2023-04-26T21:26:23.664Z,99.90
2023-04-26T21:28:50.425Z,99.90
2023-04-26T21:31:17.261Z,99.90
2023-04-26T21:33:43.933Z,99.90
2023-04-26T21:36:10.604Z,99.90
2023-04-26T21:38:37.297Z,99.90
2023-04-26T21:41:03.966Z,99.90
2023-04-26T21:43:30.620Z,99.90
2023-04-26T21:45:58.349Z,99.90
2023-04-26T21:48:26.310Z,99.90
2023-04-26T21:50:53.302Z,99.90
2023-04-26T21:53:20.199Z,99.90
2023-04-26T21:55:54.150Z,99.90
2023-04-26T21:58:21.801Z,99.90
2023-04-26T22:00:49.635Z,99.90
2023-04-26T22:03:17.142Z,99.90
2023-04-26T22:05:44.019Z,99.90
2023-04-26T22:08:10.691Z,99.90
2023-04-26T22:10:37.426Z,99.90
2023-04-26T22:13:05.260Z,99.90
2023-04-26T22:15:32.151Z,99.90
2023-04-26T22:17:58.904Z,99.90
2023-04-26T22:20:26.409Z,99.90
2023-04-26T22:22:53.557Z,99.90
2023-04-26T22:25:20.305Z,99.90
2023-04-26T22:27:47.057Z,99.90
2023-04-26T22:30:24.646Z,99.90
2023-04-26T22:32:54.674Z,99.90
2023-04-26T22:35:22.024Z,99.90
2023-04-26T22:37:48.834Z,99.90
2023-04-26T22:40:15.638Z,99.90
2023-04-26T22:42:43.248Z,99.90
2023-04-26T22:45:11.097Z,99.90
2023-04-26T22:47:38.391Z,99.90
2023-04-26T22:50:05.935Z,99.90
2023-04-26T22:52:32.988Z,99.90
2023-04-26T22:54:59.896Z,99.90
2023-04-26T22:57:26.857Z,99.90
2023-04-26T22:59:53.487Z,99.90
2023-04-26T23:02:20.749Z,99.90
2023-04-26T23:04:47.453Z,99.90
2023-04-26T23:07:14.124Z,99.90
2023-04-26T23:09:41.061Z,99.90
2023-04-26T23:12:07.795Z,99.90
2023-04-26T23:14:34.906Z,99.90
2023-04-26T23:17:02.608Z,99.90
2023-04-26T23:19:29.343Z,99.90
2023-04-26T23:21:56.240Z,99.90
2023-04-26T23:24:22.864Z,99.90
2023-04-26T23:26:49.485Z,99.90
2023-04-26T23:29:16.085Z,99.90
2023-04-26T23:31:42.995Z,99.90
2023-04-26T23:34:09.675Z,99.90
2023-04-26T23:36:36.440Z,99.90
2023-04-26T23:39:03.688Z,99.90
2023-04-26T23:41:30.883Z,99.90
2023-04-26T23:43:57.553Z,99.90
2023-04-26T23:46:24.249Z,99.90
2023-04-26T23:48:51.074Z,99.90
2023-04-26T23:51:17.669Z,99.90
2023-04-26T23:53:44.769Z,99.90
2023-04-26T23:56:11.650Z,99.90
2023-04-26T23:58:38.530Z,99.90
